Terminal Aerodrome Forecast
Issued by NWS

Home | Current Version | Previous Version | Text Only | Print | Product List | Glossary On
Versions: 1 2 3 4 5 6 7 8 9 10 11 12 13 14 15 16 17
000
FTUS45 KPSR 311100 RRA
TAFBLH
TAF
KBLH 311143Z 3112/0112 33006KT P6SM SCT060 OVC100
     FM311800 35008KT P6SM VCSH BKN070
      TEMPO 3120/3123 35012G18KT
     FM010100 01004KT P6SM SCT060=

USA.gov is the U.S. government's official web portal to all federal, state and local government web resources and services.